ENBL

Bringeland Airport

Førde, Norway
METAR ENBL 191650Z 28005KT 9999 SCT025 BKN040 12/07 Q1014
Observed Flight Rules
Aug-19 @ 16:50 UTC (23 minutes ago) Visual Flight Rules
Wind Visibility Clouds
280° at 5 knots 10,000+ meters
  • Scattered at 2,500' AGL
  • Broken at 4,000' AGL
Temperatures Readings
Current 12°C / 54°F
Dewpoint 7°C / 45°F
Humidity 72%
Altimeter 29.94" Hg
Pressure 1014 hPa
Elevation 150
METAR ENBL 191650Z 28005KT 9999 SCT025 BKN040 12/07 Q1014
Observed Flight Rules
Aug-19 @ 16:50 UTC
(23 minutes ago)
VFR
Wind Visibility
280° at 5 knots 10,000+ meters
Clouds
  • Scattered at 2,500' AGL
  • Broken at 4,000' AGL
Temperature Dewpoint
12°C / 54°F 7°C / 45°F
Humidity Altimeter Pressure
72% 29.94" Hg 1014 hPa